createdAt,value
2022-11-19T00:02:20.356Z,42.40
2022-11-19T00:05:48.104Z,36.90
2022-11-19T00:08:50.661Z,37.40
2022-11-19T00:12:10.891Z,39.50
2022-11-19T00:15:12.506Z,39.50
2022-11-19T00:18:14.549Z,38.70
2022-11-19T00:21:16.290Z,39.40
2022-11-19T00:27:20.260Z,37.70
2022-11-19T00:30:46.370Z,38.00
2022-11-19T00:33:45.335Z,42.00
2022-11-19T00:36:47.140Z,35.20
2022-11-19T00:43:09.413Z,40.90
2022-11-19T00:46:11.521Z,35.10
2022-11-19T00:49:13.315Z,36.20
2022-11-19T00:55:16.505Z,34.20
2022-11-19T00:58:19.483Z,33.00
2022-11-19T01:01:23.692Z,33.80
2022-11-19T01:04:25.434Z,35.60
2022-11-19T01:10:28.745Z,32.40
2022-11-19T01:16:40.857Z,32.70
2022-11-19T01:19:42.425Z,34.10
2022-11-19T01:22:46.269Z,33.60
2022-11-19T01:25:48.089Z,33.90
2022-11-19T01:28:49.921Z,33.20
2022-11-19T01:34:53.524Z,32.20
2022-11-19T01:37:55.498Z,35.00
2022-11-19T01:40:57.970Z,36.70
2022-11-19T01:44:01.718Z,34.60
2022-11-19T01:47:03.378Z,35.40
2022-11-19T01:50:05.788Z,35.60
2022-11-19T01:53:09.529Z,31.90
2022-11-19T01:56:11.632Z,36.00
2022-11-19T02:02:19.851Z,36.00
2022-11-19T02:05:21.918Z,36.30
2022-11-19T02:08:37.894Z,38.70
2022-11-19T02:12:21.815Z,41.60
2022-11-19T02:15:32.859Z,38.40
2022-11-19T02:19:03.652Z,40.40
2022-11-19T02:22:27.032Z,37.10
2022-11-19T02:25:37.289Z,39.40
2022-11-19T02:28:46.147Z,37.00
2022-11-19T02:31:50.345Z,38.40
2022-11-19T02:34:58.889Z,39.70
2022-11-19T02:38:00.539Z,36.20
2022-11-19T02:41:34.648Z,39.00
2022-11-19T02:45:00.877Z,41.10
2022-11-19T02:48:28.055Z,40.10
2022-11-19T02:51:29.747Z,43.40
2022-11-19T02:54:31.365Z,40.10
2022-11-19T02:57:33.274Z,42.40
2022-11-19T03:01:07.116Z,44.60
2022-11-19T03:04:28.271Z,39.70
2022-11-19T03:07:30.545Z,36.10
2022-11-19T03:14:22.279Z,41.90
2022-11-19T03:17:31.159Z,38.60
2022-11-19T03:20:41.764Z,39.80
2022-11-19T03:23:49.919Z,39.80
2022-11-19T03:27:16.445Z,43.00
2022-11-19T03:30:20.040Z,43.60
2022-11-19T03:33:25.863Z,40.40
2022-11-19T03:36:33.085Z,40.30
2022-11-19T03:39:37.099Z,39.60
2022-11-19T03:42:40.078Z,41.40
2022-11-19T03:45:44.168Z,43.90
2022-11-19T03:48:48.371Z,44.80
2022-11-19T03:51:54.119Z,40.00
2022-11-19T03:54:58.935Z,45.80
2022-11-19T03:58:05.445Z,50.10
2022-11-19T04:01:07.967Z,48.40
2022-11-19T04:04:28.273Z,37.60
2022-11-19T04:07:33.185Z,40.80
2022-11-19T04:13:36.510Z,36.90
2022-11-19T04:16:38.303Z,38.20
2022-11-19T04:22:42.231Z,37.90
2022-11-19T04:25:47.601Z,40.30
2022-11-19T04:28:49.304Z,42.00
2022-11-19T04:31:51.025Z,38.90
2022-11-19T04:34:52.617Z,38.90
2022-11-19T04:37:54.410Z,38.50
2022-11-19T04:40:56.141Z,39.70
2022-11-19T04:44:00.944Z,41.00
2022-11-19T04:47:03.225Z,40.50
2022-11-19T04:50:05.704Z,39.80
2022-11-19T04:53:07.325Z,41.70
2022-11-19T04:56:09.050Z,39.70
2022-11-19T04:59:10.676Z,40.60
2022-11-19T05:02:12.417Z,38.10
2022-11-19T05:08:15.867Z,39.60
2022-11-19T05:11:17.525Z,38.80
2022-11-19T05:14:19.160Z,38.50
2022-11-19T05:17:21.201Z,38.10
2022-11-19T05:23:25.467Z,40.80
2022-11-19T05:26:27.066Z,37.50
2022-11-19T05:29:28.738Z,43.40
2022-11-19T05:32:30.397Z,40.30
2022-11-19T05:35:32.676Z,45.20
2022-11-19T05:38:34.607Z,40.20
2022-11-19T05:41:36.442Z,41.20
2022-11-19T05:47:43.338Z,41.80
2022-11-19T05:50:47.714Z,37.90
2022-11-19T05:53:49.492Z,41.50
2022-11-19T05:56:51.194Z,41.80
2022-11-19T05:59:52.960Z,37.60
2022-11-19T06:05:56.358Z,36.90
2022-11-19T06:08:57.962Z,36.40
2022-11-19T06:11:59.918Z,36.00
2022-11-19T06:18:04.188Z,31.00
2022-11-19T06:21:10.876Z,34.00
2022-11-19T06:24:14.336Z,31.30
2022-11-19T06:27:15.944Z,33.80
2022-11-19T06:30:17.583Z,34.80
2022-11-19T06:33:19.327Z,50.40
2022-11-19T06:36:21.989Z,56.40
2022-11-19T06:39:23.799Z,37.30
2022-11-19T06:45:39.416Z,34.40
2022-11-19T06:48:41.593Z,34.70
2022-11-19T06:51:43.230Z,38.60
2022-11-19T06:54:44.902Z,39.90
2022-11-19T06:57:46.573Z,36.10
2022-11-19T07:00:48.259Z,36.30
2022-11-19T07:03:50.195Z,39.00
2022-11-19T07:06:51.853Z,37.90
2022-11-19T07:09:53.469Z,34.40
2022-11-19T07:12:55.199Z,33.80
2022-11-19T07:15:56.845Z,34.60
2022-11-19T07:18:59.902Z,35.10
2022-11-19T07:22:01.736Z,41.10
2022-11-19T07:25:03.380Z,35.90
2022-11-19T07:28:05.131Z,35.90
2022-11-19T07:31:08.071Z,35.40
2022-11-19T07:34:10.672Z,35.10
2022-11-19T07:37:12.509Z,35.10
2022-11-19T07:40:16.729Z,36.10
2022-11-19T07:43:18.340Z,35.60
2022-11-19T07:46:20.104Z,36.60
2022-11-19T07:49:22.264Z,37.20
2022-11-19T07:52:24.305Z,32.40
2022-11-19T07:55:25.938Z,32.40
2022-11-19T07:58:27.609Z,33.50
2022-11-19T08:01:29.504Z,42.60
2022-11-19T08:07:32.886Z,34.80
2022-11-19T08:10:35.487Z,32.20
2022-11-19T08:13:37.820Z,33.70
2022-11-19T08:16:58.537Z,35.60
2022-11-19T08:20:00.312Z,39.10
2022-11-19T08:23:01.880Z,34.60
2022-11-19T08:26:04.243Z,37.60
2022-11-19T08:29:06.189Z,37.80
2022-11-19T08:32:08.109Z,41.70
2022-11-19T08:38:11.362Z,40.90
2022-11-19T08:41:32.002Z,40.60
2022-11-19T08:44:33.692Z,37.80
2022-11-19T08:47:35.444Z,36.20
2022-11-19T08:50:37.369Z,38.60
2022-11-19T08:56:40.687Z,41.30
2022-11-19T09:02:44.103Z,38.40
2022-11-19T09:05:45.964Z,40.50
2022-11-19T09:11:49.166Z,40.40
2022-11-19T09:14:50.826Z,40.70
2022-11-19T09:17:52.445Z,39.00
2022-11-19T09:20:56.264Z,38.60
2022-11-19T09:23:58.004Z,48.50
2022-11-19T09:30:06.245Z,36.70
2022-11-19T09:33:08.109Z,40.20
2022-11-19T09:39:12.124Z,39.20
2022-11-19T09:45:26.999Z,45.50
2022-11-19T09:48:34.733Z,36.50
2022-11-19T09:51:37.845Z,37.70
2022-11-19T09:54:44.935Z,44.80
2022-11-19T09:57:51.130Z,36.90
2022-11-19T10:00:53.195Z,40.40
2022-11-19T10:03:55.179Z,39.60
2022-11-19T10:07:06.580Z,40.50
2022-11-19T10:10:16.089Z,37.20
2022-11-19T10:13:30.914Z,36.20
2022-11-19T10:16:57.171Z,39.40
2022-11-19T10:20:17.009Z,40.90
2022-11-19T10:23:41.257Z,36.20
2022-11-19T10:27:09.999Z,37.10
2022-11-19T10:30:18.186Z,41.90
2022-11-19T10:33:31.883Z,38.00
2022-11-19T10:36:42.761Z,49.40
2022-11-19T10:39:54.876Z,38.70
2022-11-19T10:43:29.537Z,35.60
2022-11-19T10:46:31.490Z,36.10
2022-11-19T10:49:41.820Z,33.70
2022-11-19T10:52:46.838Z,35.50
2022-11-19T10:55:55.036Z,55.50
2022-11-19T10:58:58.845Z,51.10
2022-11-19T11:02:04.025Z,35.40
2022-11-19T11:05:12.289Z,34.40
2022-11-19T11:08:13.937Z,31.30
2022-11-19T11:14:45.333Z,33.10
2022-11-19T11:17:48.227Z,35.20
2022-11-19T11:20:50.651Z,37.20
2022-11-19T11:23:54.198Z,38.90
2022-11-19T11:27:20.465Z,36.10
2022-11-19T11:30:22.431Z,35.60
2022-11-19T11:33:28.404Z,37.20
2022-11-19T11:36:33.424Z,32.70
2022-11-19T11:39:38.565Z,35.30
2022-11-19T11:42:40.234Z,33.30
2022-11-19T11:45:41.923Z,35.40
2022-11-19T11:48:47.906Z,35.40
2022-11-19T11:52:03.465Z,35.90
2022-11-19T11:55:11.442Z,34.30
2022-11-19T11:58:27.316Z,34.10
2022-11-19T12:01:29.067Z,36.70
2022-11-19T12:08:04.389Z,33.80
2022-11-19T12:11:24.430Z,36.80
2022-11-19T12:14:46.584Z,33.60
2022-11-19T12:18:43.086Z,38.00
2022-11-19T12:21:50.514Z,39.60
2022-11-19T12:25:21.819Z,38.40
2022-11-19T12:28:42.350Z,39.90
2022-11-19T12:32:23.211Z,40.00
2022-11-19T12:35:49.758Z,40.40
2022-11-19T12:39:23.458Z,33.00
2022-11-19T12:42:49.472Z,33.50
2022-11-19T12:46:12.930Z,40.00
2022-11-19T12:49:46.732Z,40.50
2022-11-19T12:52:57.153Z,39.60
2022-11-19T12:56:17.771Z,35.60
2022-11-19T12:59:57.238Z,35.60
2022-11-19T13:03:33.515Z,40.70
2022-11-19T13:06:40.085Z,41.20
2022-11-19T13:09:44.216Z,38.70
2022-11-19T13:12:50.168Z,34.50
2022-11-19T13:15:58.305Z,37.60
2022-11-19T13:19:18.974Z,36.20
2022-11-19T13:22:24.919Z,37.80
2022-11-19T13:25:39.389Z,39.50
2022-11-19T13:28:53.640Z,34.90
2022-11-19T13:31:59.130Z,35.60
2022-11-19T13:35:23.462Z,38.10
2022-11-19T13:38:49.012Z,35.10
2022-11-19T13:42:10.616Z,34.50
2022-11-19T13:45:16.766Z,34.10
2022-11-19T13:48:24.812Z,46.10
2022-11-19T13:51:33.319Z,53.10
2022-11-19T13:54:39.949Z,46.10
2022-11-19T13:57:43.728Z,40.80
2022-11-19T14:01:17.600Z,39.70
2022-11-19T14:04:26.842Z,38.10
2022-11-19T14:07:47.180Z,37.60
2022-11-19T14:10:57.918Z,39.40
2022-11-19T14:14:29.936Z,37.10
2022-11-19T14:18:04.526Z,45.00
2022-11-19T14:21:59.995Z,41.30
2022-11-19T14:25:34.325Z,41.10
2022-11-19T14:28:52.764Z,37.50
2022-11-19T14:32:00.353Z,39.00
2022-11-19T14:35:02.022Z,43.00
2022-11-19T14:38:30.469Z,44.40
2022-11-19T14:41:35.594Z,38.00
2022-11-19T14:44:37.235Z,37.90
2022-11-19T14:47:43.785Z,40.30
2022-11-19T14:51:17.943Z,42.00
2022-11-19T14:54:31.280Z,50.00
2022-11-19T14:57:41.880Z,43.60
2022-11-19T15:00:43.892Z,59.10
2022-11-19T15:03:48.931Z,54.40
2022-11-19T15:06:51.893Z,46.50
2022-11-19T15:10:14.006Z,48.50
2022-11-19T15:13:18.860Z,48.10
2022-11-19T15:16:26.045Z,49.00
2022-11-19T15:19:58.356Z,47.80
2022-11-19T15:23:04.646Z,42.80
2022-11-19T15:26:37.412Z,46.40
2022-11-19T15:30:00.837Z,41.90
2022-11-19T15:33:54.083Z,44.30
2022-11-19T15:37:01.035Z,49.90
2022-11-19T15:40:03.026Z,89.90
2022-11-19T15:43:29.134Z,106.10
2022-11-19T15:46:47.732Z,69.70
2022-11-19T15:49:51.185Z,67.70
2022-11-19T15:53:23.195Z,91.10
2022-11-19T15:56:25.110Z,80.90
2022-11-19T15:59:28.446Z,110.70
2022-11-19T16:02:37.002Z,380.10
2022-11-19T16:05:39.832Z,223.00
2022-11-19T16:08:41.757Z,101.90
2022-11-19T16:12:02.337Z,73.60
2022-11-19T16:15:35.508Z,68.20
2022-11-19T16:18:47.936Z,78.00
2022-11-19T16:21:56.905Z,109.40
2022-11-19T16:25:04.485Z,119.30
2022-11-19T16:28:09.892Z,110.80
2022-11-19T16:31:13.060Z,110.10
2022-11-19T16:34:21.690Z,119.30
2022-11-19T16:37:23.800Z,118.40
2022-11-19T16:40:26.263Z,97.10
2022-11-19T16:43:28.028Z,91.50
2022-11-19T16:49:40.977Z,64.00
2022-11-19T16:52:43.311Z,90.10
2022-11-19T16:55:50.598Z,84.50
2022-11-19T16:58:56.943Z,86.30
2022-11-19T17:01:59.955Z,92.80
2022-11-19T17:05:10.650Z,98.20
2022-11-19T17:08:25.275Z,83.20
2022-11-19T17:12:05.609Z,117.40
2022-11-19T17:15:42.633Z,112.50
2022-11-19T17:18:44.416Z,115.50
2022-11-19T17:21:55.653Z,103.90
2022-11-19T17:24:57.506Z,113.20
2022-11-19T17:31:03.738Z,122.00
2022-11-19T17:34:13.428Z,97.20
2022-11-19T17:37:15.375Z,131.80
2022-11-19T17:40:17.024Z,137.70
2022-11-19T17:43:51.025Z,120.30
2022-11-19T17:46:53.302Z,156.60
2022-11-19T17:49:54.872Z,109.10
2022-11-19T17:52:56.764Z,87.90
2022-11-19T17:59:01.095Z,79.00
2022-11-19T18:02:02.921Z,84.50
2022-11-19T18:05:14.175Z,78.30
2022-11-19T18:08:16.617Z,86.90
2022-11-19T18:11:22.632Z,99.30
2022-11-19T18:14:24.358Z,99.10
2022-11-19T18:17:26.360Z,116.70
2022-11-19T18:20:28.010Z,108.90
2022-11-19T18:23:29.585Z,111.10
2022-11-19T18:26:31.701Z,115.30
2022-11-19T18:29:33.758Z,85.80
2022-11-19T18:32:35.602Z,85.30
2022-11-19T18:38:39.127Z,103.10
2022-11-19T18:41:41.548Z,109.10
2022-11-19T18:44:43.739Z,98.40
2022-11-19T18:47:45.668Z,113.00
2022-11-19T18:53:49.110Z,115.40
2022-11-19T18:56:51.017Z,112.40
2022-11-19T19:02:54.354Z,104.10
2022-11-19T19:05:56.259Z,105.50
2022-11-19T19:12:18.354Z,96.20
2022-11-19T19:15:20.185Z,109.60
2022-11-19T19:18:22.021Z,102.40
2022-11-19T19:21:24.439Z,98.40
2022-11-19T19:24:26.674Z,99.90
2022-11-19T19:27:29.091Z,95.50
2022-11-19T19:33:32.319Z,111.00
2022-11-19T19:36:34.725Z,144.20
2022-11-19T19:39:36.403Z,170.90
2022-11-19T19:42:41.222Z,167.20
2022-11-19T19:45:43.349Z,161.10
2022-11-19T19:48:53.322Z,171.90
2022-11-19T19:51:55.463Z,177.60
2022-11-19T19:54:57.019Z,159.80
2022-11-19T19:58:00.302Z,133.70
2022-11-19T20:01:13.678Z,121.50
2022-11-19T20:04:15.364Z,112.70
2022-11-19T20:07:17.038Z,108.60
2022-11-19T20:10:18.711Z,108.00
2022-11-19T20:13:29.198Z,98.40
2022-11-19T20:16:32.909Z,100.40
2022-11-19T20:19:34.751Z,102.20
2022-11-19T20:25:38.779Z,101.90
2022-11-19T20:28:40.660Z,100.50
2022-11-19T20:34:47.482Z,103.20
2022-11-19T20:37:49.376Z,99.90
2022-11-19T20:44:19.480Z,103.90
2022-11-19T20:47:21.160Z,110.80
2022-11-19T20:50:22.890Z,112.10
2022-11-19T20:56:26.537Z,109.30
2022-11-19T20:59:28.728Z,118.80
2022-11-19T21:02:30.435Z,119.10
2022-11-19T21:05:32.581Z,105.20
2022-11-19T21:08:35.828Z,107.80
2022-11-19T21:11:37.736Z,119.30
2022-11-19T21:17:41.052Z,109.40
2022-11-19T21:20:43.252Z,106.90
2022-11-19T21:23:45.477Z,103.90
2022-11-19T21:26:47.666Z,106.90
2022-11-19T21:29:49.733Z,105.50
2022-11-19T21:32:51.706Z,106.00
2022-11-19T21:35:55.033Z,99.10
2022-11-19T21:38:56.890Z,118.20
2022-11-19T21:41:58.477Z,113.80
2022-11-19T21:45:00.121Z,105.90
2022-11-19T21:48:01.826Z,101.90
2022-11-19T21:51:07.807Z,101.80
2022-11-19T21:54:09.486Z,110.40
2022-11-19T21:57:39.591Z,112.10
2022-11-19T22:00:42.900Z,125.80
2022-11-19T22:03:44.555Z,110.90
2022-11-19T22:06:46.304Z,152.00
2022-11-19T22:09:47.981Z,178.80
2022-11-19T22:12:49.599Z,178.20
2022-11-19T22:15:58.961Z,191.20
2022-11-19T22:19:01.021Z,185.10
2022-11-19T22:22:03.560Z,167.50
2022-11-19T22:25:05.413Z,147.40
2022-11-19T22:28:07.093Z,124.30
2022-11-19T22:31:08.809Z,118.20
2022-11-19T22:34:12.123Z,115.90
2022-11-19T22:37:13.768Z,127.50
2022-11-19T22:40:15.492Z,119.00
2022-11-19T22:43:21.666Z,112.90
2022-11-19T22:46:24.757Z,129.80
2022-11-19T22:52:28.252Z,139.80
2022-11-19T22:55:29.888Z,135.80
2022-11-19T22:58:33.603Z,123.90
2022-11-19T23:01:35.831Z,136.80
2022-11-19T23:04:37.488Z,145.70
2022-11-19T23:07:39.291Z,123.60
2022-11-19T23:13:44.587Z,120.40
2022-11-19T23:16:46.517Z,130.20
2022-11-19T23:19:48.243Z,111.80
2022-11-19T23:22:49.921Z,126.80
2022-11-19T23:25:58.927Z,115.40
2022-11-19T23:29:01.174Z,117.10
2022-11-19T23:32:03.132Z,124.10
2022-11-19T23:35:05.335Z,128.00
2022-11-19T23:38:09.010Z,119.90
2022-11-19T23:41:13.497Z,125.40
2022-11-19T23:44:15.267Z,122.20
2022-11-19T23:47:16.887Z,126.70
2022-11-19T23:50:18.640Z,124.30
2022-11-19T23:53:20.733Z,128.40
2022-11-19T23:56:23.983Z,131.60
2022-11-19T23:59:26.048Z,126.70
